createdAt,value
2022-11-22T00:00:17.570Z,4.30
2022-11-22T00:05:22.843Z,4.30
2022-11-22T00:10:27.399Z,4.40
2022-11-22T00:15:30.996Z,4.50
2022-11-22T00:20:43.767Z,4.70
2022-11-22T00:25:49.401Z,5.00
2022-11-22T00:30:53.919Z,5.00
2022-11-22T00:36:00.929Z,5.10
2022-11-22T00:41:04.436Z,5.10
2022-11-22T00:46:09.968Z,5.10
2022-11-22T00:51:17.018Z,5.10
2022-11-22T00:56:20.525Z,5.10
2022-11-22T01:01:25.972Z,5.20
2022-11-22T01:06:32.056Z,5.20
2022-11-22T01:11:35.502Z,5.20
2022-11-22T01:16:40.047Z,5.30
2022-11-22T01:21:44.872Z,5.30
2022-11-22T01:26:49.752Z,5.30
2022-11-22T01:31:54.608Z,5.30
2022-11-22T01:36:59.987Z,5.30
2022-11-22T01:42:03.649Z,5.30
2022-11-22T01:47:13.317Z,5.50
2022-11-22T01:52:21.781Z,5.50
2022-11-22T01:57:30.117Z,5.60
2022-11-22T02:02:34.695Z,5.60
2022-11-22T02:07:48.384Z,5.50
2022-11-22T02:12:53.049Z,5.40
2022-11-22T02:17:58.676Z,5.30
2022-11-22T02:23:11.762Z,5.30
2022-11-22T02:28:17.629Z,5.40
2022-11-22T02:33:22.048Z,5.50
2022-11-22T02:38:27.530Z,5.50
2022-11-22T02:43:36.227Z,5.40
2022-11-22T02:48:42.927Z,5.30
2022-11-22T02:53:48.021Z,5.20
2022-11-22T02:58:52.713Z,5.10
2022-11-22T03:03:56.230Z,5.00
2022-11-22T03:09:00.406Z,4.90
2022-11-22T03:14:06.686Z,4.90
2022-11-22T03:19:11.913Z,5.00
2022-11-22T03:24:16.795Z,5.00
2022-11-22T03:29:21.556Z,5.10
2022-11-22T03:34:29.048Z,5.10
2022-11-22T03:39:32.721Z,5.00
2022-11-22T03:44:37.468Z,5.00
2022-11-22T03:49:40.734Z,4.80
2022-11-22T03:54:44.018Z,4.80
2022-11-22T03:59:50.846Z,4.70
2022-11-22T04:04:54.302Z,4.60
2022-11-22T04:10:04.214Z,4.50
2022-11-22T04:20:57.109Z,4.40
2022-11-22T04:26:00.503Z,4.20
2022-11-22T04:31:24.892Z,4.00
2022-11-22T04:36:28.829Z,3.90
2022-11-22T04:41:32.413Z,3.80
2022-11-22T04:46:38.372Z,4.00
2022-11-22T04:52:08.359Z,3.90
2022-11-22T04:57:11.618Z,3.70
2022-11-22T05:02:16.408Z,3.60
2022-11-22T05:07:19.674Z,3.40
2022-11-22T05:12:22.883Z,3.30
2022-11-22T05:17:27.483Z,3.20
2022-11-22T05:22:44.763Z,3.30
2022-11-22T05:27:48.083Z,3.30
2022-11-22T05:32:52.911Z,3.30
2022-11-22T05:37:57.966Z,3.40
2022-11-22T05:43:01.329Z,3.70
2022-11-22T05:48:06.896Z,3.90
2022-11-22T05:53:10.449Z,4.00
2022-11-22T05:58:13.928Z,4.20
2022-11-22T06:03:19.749Z,4.10
2022-11-22T06:08:25.356Z,4.10
2022-11-22T06:13:29.761Z,4.00
2022-11-22T06:18:34.747Z,4.10
2022-11-22T06:23:38.188Z,4.10
2022-11-22T06:28:43.142Z,4.10
2022-11-22T06:33:50.565Z,4.30
2022-11-22T06:38:54.202Z,4.30
2022-11-22T06:43:57.727Z,4.40
2022-11-22T06:49:04.264Z,4.40
2022-11-22T06:54:18.699Z,4.40
2022-11-22T06:59:25.695Z,4.40
2022-11-22T07:04:31.486Z,4.40
2022-11-22T07:09:38.441Z,4.40
2022-11-22T07:14:41.796Z,4.40
2022-11-22T07:19:46.592Z,4.50
2022-11-22T07:24:49.840Z,4.50
2022-11-22T07:29:53.698Z,4.60
2022-11-22T07:34:58.621Z,4.70
2022-11-22T07:40:05.458Z,4.70
2022-11-22T07:45:09.993Z,4.80
2022-11-22T07:50:14.926Z,4.90
2022-11-22T07:55:18.225Z,4.90
2022-11-22T08:00:22.032Z,5.00
2022-11-22T08:05:26.752Z,5.10
2022-11-22T08:10:30.136Z,5.10
2022-11-22T08:15:33.754Z,5.20
2022-11-22T08:20:38.379Z,5.20
2022-11-22T08:25:41.661Z,5.30
2022-11-22T08:30:45.110Z,5.40
2022-11-22T08:35:52.618Z,5.60
2022-11-22T08:40:56.432Z,5.70
2022-11-22T08:46:02.118Z,5.90
2022-11-22T08:51:09.339Z,6.10
2022-11-22T08:56:14.242Z,6.20
2022-11-22T09:01:19.320Z,6.40
2022-11-22T09:11:47.360Z,6.70
2022-11-22T09:16:50.763Z,6.90
2022-11-22T09:21:55.402Z,6.90
2022-11-22T09:26:58.674Z,6.90
2022-11-22T09:32:03.530Z,6.90
2022-11-22T09:37:08.377Z,6.90
2022-11-22T09:42:35.227Z,6.90
2022-11-22T09:47:43.988Z,7.00
2022-11-22T09:52:55.335Z,6.90
2022-11-22T09:58:08.184Z,7.00
2022-11-22T10:03:23.427Z,6.90
2022-11-22T10:08:38.583Z,6.90
2022-11-22T10:13:48.805Z,7.00
2022-11-22T10:18:57.992Z,6.90
2022-11-22T10:24:02.781Z,7.00
2022-11-22T10:29:16.264Z,6.80
2022-11-22T10:34:28.686Z,6.80
2022-11-22T10:40:01.064Z,6.90
2022-11-22T10:45:15.337Z,6.90
2022-11-22T10:50:23.881Z,7.20
2022-11-22T10:55:43.017Z,7.40
2022-11-22T11:00:50.366Z,7.40
2022-11-22T11:11:27.375Z,7.40
2022-11-22T11:16:33.942Z,7.60
2022-11-22T11:21:37.614Z,7.70
2022-11-22T11:26:44.580Z,7.80
2022-11-22T11:31:49.608Z,7.80
2022-11-22T11:36:56.066Z,7.80
2022-11-22T11:42:04.938Z,7.80
2022-11-22T11:47:18.766Z,7.80
2022-11-22T11:52:27.003Z,7.70
2022-11-22T11:57:35.107Z,7.80
2022-11-22T12:02:42.066Z,8.00
2022-11-22T12:07:47.982Z,8.00
2022-11-22T12:13:04.050Z,8.00
2022-11-22T12:18:28.947Z,8.10
2022-11-22T12:23:40.641Z,7.90
2022-11-22T12:28:45.671Z,8.10
2022-11-22T12:33:54.183Z,7.90
2022-11-22T12:39:00.685Z,7.90
2022-11-22T12:44:08.412Z,7.90
2022-11-22T12:49:17.040Z,7.80
2022-11-22T12:54:24.500Z,7.70
2022-11-22T12:59:37.570Z,7.80
2022-11-22T13:04:49.614Z,7.90
2022-11-22T13:09:59.754Z,7.80
2022-11-22T13:15:04.944Z,7.90
2022-11-22T13:20:16.035Z,7.90
2022-11-22T13:25:41.827Z,7.90
2022-11-22T13:31:17.803Z,7.70
2022-11-22T13:36:39.303Z,7.50
2022-11-22T13:41:50.129Z,7.30
2022-11-22T13:47:00.554Z,7.30
2022-11-22T13:52:06.248Z,7.40
2022-11-22T13:57:26.586Z,7.30
2022-11-22T14:02:31.445Z,7.20
2022-11-22T14:07:42.000Z,7.20
2022-11-22T14:19:06.309Z,6.90
2022-11-22T14:24:15.751Z,6.70
2022-11-22T14:29:53.757Z,6.60
2022-11-22T14:35:29.580Z,6.50
2022-11-22T14:40:38.375Z,6.40
2022-11-22T14:45:45.652Z,6.30
2022-11-22T14:50:54.502Z,6.10
2022-11-22T14:56:06.033Z,6.10
2022-11-22T15:01:49.528Z,6.00
2022-11-22T15:09:10.828Z,6.00
2022-11-22T15:12:49.364Z,6.00
2022-11-22T16:01:40.788Z,5.90
2022-11-22T16:06:45.029Z,5.90
2022-11-22T16:12:02.344Z,6.00
2022-11-22T16:17:31.858Z,6.00
2022-11-22T16:22:35.288Z,5.90
2022-11-22T16:27:47.285Z,5.90
2022-11-22T16:32:53.916Z,5.80
2022-11-22T16:37:57.488Z,5.80
2022-11-22T16:43:06.778Z,5.80
2022-11-22T16:48:31.362Z,5.70
2022-11-22T16:53:43.070Z,5.70
2022-11-22T16:58:48.446Z,5.70
2022-11-22T17:03:54.086Z,5.70
2022-11-22T17:08:58.988Z,5.80
2022-11-22T17:14:03.786Z,5.80
2022-11-22T17:19:14.563Z,5.80
2022-11-22T17:24:31.047Z,5.90
2022-11-22T17:29:50.398Z,6.00
2022-11-22T17:34:55.322Z,6.00
2022-11-22T17:39:58.755Z,6.00
2022-11-22T17:45:03.486Z,5.90
2022-11-22T17:50:07.809Z,6.00
2022-11-22T17:55:14.342Z,5.90
2022-11-22T18:00:26.876Z,5.90
2022-11-22T18:05:36.030Z,5.80
2022-11-22T18:10:40.192Z,5.70
2022-11-22T18:15:45.487Z,5.60
2022-11-22T18:20:49.646Z,5.50
2022-11-22T18:25:58.484Z,5.50
2022-11-22T18:31:15.685Z,5.50
2022-11-22T18:36:54.093Z,5.40
2022-11-22T18:41:50.779Z,5.40
2022-11-22T18:46:55.713Z,5.40
2022-11-22T18:51:59.049Z,5.50
2022-11-22T18:57:03.474Z,5.50
2022-11-22T19:02:08.809Z,5.40
2022-11-22T19:07:19.054Z,5.50
2022-11-22T19:12:23.459Z,5.30
2022-11-22T19:17:28.342Z,5.30
2022-11-22T19:22:32.673Z,5.10
2022-11-22T19:27:39.469Z,5.20
2022-11-22T19:32:44.303Z,5.10
2022-11-22T19:37:48.708Z,5.00
2022-11-22T19:42:52.034Z,4.90
2022-11-22T19:47:58.242Z,4.90
2022-11-22T19:53:03.640Z,4.70
2022-11-22T19:58:08.131Z,4.60
2022-11-22T20:03:14.781Z,4.50
2022-11-22T20:08:18.233Z,4.50
2022-11-22T20:13:21.898Z,4.50
2022-11-22T20:18:27.812Z,4.50
2022-11-22T20:23:32.280Z,4.30
2022-11-22T20:28:36.797Z,4.20
2022-11-22T20:33:43.897Z,3.90
2022-11-22T20:38:49.909Z,3.80
2022-11-22T20:43:54.919Z,3.60
2022-11-22T20:49:00.866Z,3.60
2022-11-22T20:54:04.572Z,3.40
2022-11-22T20:59:11.304Z,3.20
2022-11-22T21:04:18.678Z,3.00
2022-11-22T21:09:22.158Z,2.80
2022-11-22T21:14:29.091Z,2.60
2022-11-22T21:19:35.148Z,2.40
2022-11-22T21:24:38.843Z,2.30
2022-11-22T21:29:43.327Z,2.40
2022-11-22T21:34:49.271Z,2.50
2022-11-22T21:39:54.699Z,2.60
2022-11-22T21:44:58.158Z,2.80
2022-11-22T21:50:06.060Z,2.80
2022-11-22T21:55:15.492Z,2.70
2022-11-22T22:00:19.629Z,2.60
2022-11-22T22:05:24.614Z,2.40
2022-11-22T22:10:27.871Z,2.40
2022-11-22T22:15:31.364Z,2.30
2022-11-22T22:20:36.144Z,2.20
2022-11-22T22:25:41.402Z,2.20
2022-11-22T22:30:45.128Z,2.10
2022-11-22T22:35:50.161Z,2.10
2022-11-22T22:40:57.045Z,2.10
2022-11-22T22:46:06.474Z,2.20
2022-11-22T22:51:14.624Z,2.10
2022-11-22T22:56:20.223Z,2.00
2022-11-22T23:01:26.179Z,1.90
2022-11-22T23:06:32.691Z,1.80
2022-11-22T23:11:54.044Z,1.90
2022-11-22T23:16:58.595Z,2.00
2022-11-22T23:22:03.463Z,2.10
2022-11-22T23:27:06.846Z,2.20
2022-11-22T23:32:10.212Z,1.90
2022-11-22T23:37:15.029Z,1.70
2022-11-22T23:42:18.241Z,1.50
2022-11-22T23:47:22.040Z,1.30
2022-11-22T23:52:27.770Z,1.20
2022-11-22T23:57:32.154Z,1.00
